Portada
METAR-TAF:

METAR-TAF

Aeropuertos :

Poteau, Oklahoma, Estados Unidos

latitud: 35-01-18N, longitud: 094-37-17W, altitud: 138 m

Observación

El informe se hizo hace 22 minutos, a las 07:15 UTC
Viento 3 kt del suroeste
Temperatura 23°C
Humedad 94%
Presión 1015 hPa
Visibilidad: 16.1 km
Cielo despejado

METAR: KRKR 060715Z AUTO 23003KT 10SM CLR 23/22 A2996 RMK AO2

Hora: 02:37 (07:37 UTC)


TAF: falta

Observaciones y pronósticos meteorológicos de más de 4000 aeropuertos (mensajes METAR y TAF).

Los puntos amarillos y rojos representan las estaciones disponibles.

Ponga el ratón en el punto deseado para ver el nombre de la estación.

Haga clic para ver las observaciones y los pronósticos meteorológicos.

Para cambiar el mapa : haga clic en los botones verdes con una cruz de color negro para hacer un zoom, en el botón verde con un guión para alejar o en las flechas verdes para mapas adyacentes.


METAR-TAF: